createdAt,value
2023-10-21T00:01:10.894Z,1.40
2023-10-21T00:03:37.510Z,1.20
2023-10-21T00:06:04.010Z,1.40
2023-10-21T00:08:30.555Z,1.20
2023-10-21T00:11:04.987Z,1.50
2023-10-21T00:13:31.478Z,1.70
2023-10-21T00:15:57.863Z,1.50
2023-10-21T00:18:25.902Z,1.70
2023-10-21T00:20:54.093Z,1.40
2023-10-21T00:23:21.228Z,1.20
2023-10-21T00:25:47.658Z,1.20
2023-10-21T00:28:14.050Z,1.30
2023-10-21T00:30:40.494Z,1.25
2023-10-21T00:33:06.970Z,1.30
2023-10-21T00:35:33.321Z,1.10
2023-10-21T00:37:59.723Z,1.35
2023-10-21T00:40:26.118Z,1.50
2023-10-21T00:42:52.574Z,1.40
2023-10-21T00:45:18.994Z,1.42
2023-10-21T00:47:45.564Z,1.42
2023-10-21T00:50:12.034Z,1.20
2023-10-21T00:52:46.450Z,1.70
2023-10-21T00:55:13.497Z,1.40
2023-10-21T00:57:40.652Z,1.55
2023-10-21T01:00:08.203Z,1.60
2023-10-21T01:02:34.924Z,1.60
2023-10-21T01:05:01.405Z,1.65
2023-10-21T01:07:27.845Z,1.90
2023-10-21T01:09:54.262Z,1.63
2023-10-21T01:12:20.812Z,1.40
2023-10-21T01:14:47.291Z,1.77
2023-10-21T01:17:13.651Z,1.55
2023-10-21T01:19:40.019Z,1.60
2023-10-21T01:22:06.374Z,1.42
2023-10-21T01:24:32.799Z,1.35
2023-10-21T01:26:59.220Z,1.20
2023-10-21T01:29:25.689Z,1.50
2023-10-21T01:31:52.169Z,1.40
2023-10-21T01:34:18.710Z,1.27
2023-10-21T01:36:45.098Z,1.50
2023-10-21T01:39:11.717Z,1.52
2023-10-21T01:41:39.754Z,1.55
2023-10-21T01:44:06.468Z,1.50
2023-10-21T01:46:32.918Z,1.23
2023-10-21T01:48:59.359Z,1.30
2023-10-21T01:51:25.695Z,1.17
2023-10-21T01:53:52.174Z,1.10
2023-10-21T01:56:18.619Z,1.33
2023-10-21T01:58:45.057Z,1.20
2023-10-21T02:01:11.684Z,1.20
2023-10-21T02:03:39.267Z,1.20
2023-10-21T02:06:07.620Z,1.27
2023-10-21T02:08:35.044Z,1.38
2023-10-21T02:11:01.521Z,1.13
2023-10-21T02:13:27.948Z,1.60
2023-10-21T02:15:54.450Z,1.10
2023-10-21T02:18:20.996Z,1.20
2023-10-21T02:20:47.403Z,1.17
2023-10-21T02:23:13.816Z,1.27
2023-10-21T02:25:40.502Z,1.10
2023-10-21T02:28:06.985Z,1.20
2023-10-21T02:30:35.849Z,1.10
2023-10-21T02:33:02.283Z,1.10
2023-10-21T02:35:33.708Z,1.15
2023-10-21T02:38:00.129Z,1.15
2023-10-21T02:40:26.487Z,1.10
2023-10-21T02:42:52.925Z,1.10
2023-10-21T02:45:19.415Z,0.77
2023-10-21T02:47:45.866Z,0.98
2023-10-21T02:50:12.429Z,0.85
2023-10-21T02:52:39.217Z,0.93
2023-10-21T02:55:06.958Z,0.80
2023-10-21T02:57:33.458Z,0.88
2023-10-21T02:59:59.846Z,1.00
2023-10-21T03:02:26.398Z,0.60
2023-10-21T03:04:52.891Z,0.70
2023-10-21T03:07:19.335Z,0.60
2023-10-21T03:09:45.686Z,0.98
2023-10-21T03:12:12.090Z,0.80
2023-10-21T03:14:38.449Z,0.70
2023-10-21T03:17:04.787Z,1.00
2023-10-21T03:19:31.154Z,0.90
2023-10-21T03:21:57.575Z,0.70
2023-10-21T03:24:23.951Z,0.85
2023-10-21T03:26:50.351Z,0.77
2023-10-21T03:29:16.738Z,0.63
2023-10-21T03:31:43.151Z,0.70
2023-10-21T03:34:09.631Z,0.90
2023-10-21T03:36:35.996Z,0.85
2023-10-21T03:39:02.508Z,0.90
2023-10-21T03:41:28.959Z,0.60
2023-10-21T03:43:55.400Z,1.00
2023-10-21T03:46:21.874Z,0.70
2023-10-21T03:48:48.319Z,0.65
2023-10-21T03:51:14.875Z,0.80
2023-10-21T03:53:42.217Z,0.80
2023-10-21T03:56:09.180Z,0.90
2023-10-21T03:58:36.622Z,1.42
2023-10-21T04:03:29.877Z,0.90
2023-10-21T04:05:57.455Z,1.20
2023-10-21T04:08:25.292Z,1.10
2023-10-21T04:10:51.971Z,1.00
2023-10-21T04:13:18.306Z,1.02
2023-10-21T04:15:44.788Z,1.10
2023-10-21T04:18:11.497Z,1.40
2023-10-21T04:20:38.084Z,1.25
2023-10-21T04:23:04.816Z,1.33
2023-10-21T04:25:31.171Z,0.70
2023-10-21T04:27:57.970Z,1.20
2023-10-21T04:30:25.077Z,0.88
2023-10-21T04:32:52.704Z,1.10
2023-10-21T04:35:19.567Z,0.95
2023-10-21T04:37:45.995Z,0.80
2023-10-21T04:40:12.656Z,0.75
2023-10-21T04:42:39.080Z,0.90
2023-10-21T04:45:08.373Z,0.80
2023-10-21T04:47:35.101Z,1.13
2023-10-21T04:50:01.587Z,0.65
2023-10-21T04:52:27.982Z,0.77
2023-10-21T04:54:54.417Z,0.68
2023-10-21T04:57:20.801Z,0.60
2023-10-21T04:59:47.302Z,0.70
2023-10-21T05:02:13.747Z,1.00
2023-10-21T05:04:40.691Z,0.80
2023-10-21T05:07:07.653Z,0.98
2023-10-21T05:09:33.992Z,0.60
2023-10-21T05:12:00.645Z,0.80
2023-10-21T05:14:27.396Z,0.80
2023-10-21T05:16:53.777Z,0.57
2023-10-21T05:19:22.675Z,0.47
2023-10-21T05:21:49.376Z,0.60
2023-10-21T05:24:15.856Z,0.70
2023-10-21T05:26:42.255Z,0.50
2023-10-21T05:29:08.704Z,0.80
2023-10-21T05:31:35.060Z,0.60
2023-10-21T05:34:01.619Z,0.50
2023-10-21T05:36:28.088Z,0.52
2023-10-21T05:38:54.565Z,0.60
2023-10-21T05:41:20.979Z,0.80
2023-10-21T05:43:47.376Z,0.70
2023-10-21T05:46:13.906Z,0.80
2023-10-21T05:48:40.388Z,0.73
2023-10-21T05:51:06.954Z,0.60
2023-10-21T05:53:33.382Z,0.60
2023-10-21T05:56:00.040Z,0.70
2023-10-21T05:58:28.872Z,0.70
2023-10-21T06:01:06.861Z,0.75
2023-10-21T06:03:33.600Z,0.40
2023-10-21T06:06:00.052Z,0.70
2023-10-21T06:08:26.594Z,0.80
2023-10-21T06:10:53.106Z,0.70
2023-10-21T06:13:19.445Z,0.60
2023-10-21T06:15:45.826Z,0.68
2023-10-21T06:18:12.777Z,0.85
2023-10-21T06:20:39.175Z,0.70
2023-10-21T06:23:05.602Z,0.65
2023-10-21T06:25:32.130Z,0.60
2023-10-21T06:27:59.270Z,0.50
2023-10-21T06:30:25.747Z,0.77
2023-10-21T06:32:52.237Z,0.70
2023-10-21T06:35:18.807Z,0.80
2023-10-21T06:37:45.190Z,0.90
2023-10-21T06:40:11.732Z,0.70
2023-10-21T06:42:38.188Z,0.85
2023-10-21T06:45:05.019Z,0.77
2023-10-21T06:47:31.541Z,1.00
2023-10-21T06:49:58.077Z,1.20
2023-10-21T06:52:24.570Z,0.82
2023-10-21T06:54:50.929Z,0.98
2023-10-21T06:57:17.322Z,0.82
2023-10-21T06:59:43.712Z,0.80
2023-10-21T07:02:10.352Z,0.75
2023-10-21T07:04:38.603Z,0.80
2023-10-21T07:07:05.198Z,0.90
2023-10-21T07:09:31.658Z,0.70
2023-10-21T07:11:58.117Z,0.60
2023-10-21T07:14:24.498Z,0.70
2023-10-21T07:16:50.896Z,0.80
2023-10-21T07:19:17.372Z,0.70
2023-10-21T07:21:43.721Z,0.60
2023-10-21T07:24:10.201Z,0.77
2023-10-21T07:26:36.728Z,1.83
2023-10-21T07:29:03.223Z,0.60
2023-10-21T07:31:29.908Z,0.47
2023-10-21T07:33:56.339Z,0.50
2023-10-21T07:36:22.759Z,1.13
2023-10-21T07:38:49.561Z,0.73
2023-10-21T07:41:15.919Z,0.75
2023-10-21T07:43:42.482Z,0.70
2023-10-21T07:46:08.947Z,0.60
2023-10-21T07:48:35.421Z,0.65
2023-10-21T07:51:02.078Z,0.75
2023-10-21T07:53:28.458Z,2.78
2023-10-21T07:55:54.847Z,2.00
2023-10-21T07:58:21.385Z,1.30
2023-10-21T08:00:47.929Z,1.50
2023-10-21T08:03:14.527Z,1.30
2023-10-21T08:05:41.529Z,0.80
2023-10-21T08:08:07.913Z,0.70
2023-10-21T08:10:34.270Z,0.95
2023-10-21T08:13:01.956Z,1.13
2023-10-21T08:15:28.492Z,1.65
2023-10-21T08:17:55.095Z,0.90
2023-10-21T08:20:21.518Z,2.05
2023-10-21T08:22:49.037Z,0.95
2023-10-21T08:25:15.812Z,1.20
2023-10-21T08:27:43.748Z,1.10
2023-10-21T08:30:10.427Z,1.33
2023-10-21T08:32:37.742Z,1.05
2023-10-21T08:35:04.350Z,1.08
2023-10-21T08:37:30.688Z,0.85
2023-10-21T08:39:57.138Z,1.45
2023-10-21T08:42:32.669Z,0.70
2023-10-21T08:45:13.571Z,0.60
2023-10-21T08:47:41.369Z,0.73
2023-10-21T08:50:08.991Z,0.80
2023-10-21T08:52:36.280Z,0.90
2023-10-21T08:57:29.934Z,0.77
2023-10-21T08:59:56.396Z,0.60
2023-10-21T09:02:22.751Z,0.50
2023-10-21T09:04:49.165Z,0.60
2023-10-21T09:07:15.499Z,0.60
2023-10-21T09:09:42.180Z,0.70
2023-10-21T09:12:12.705Z,0.80
2023-10-21T09:14:58.535Z,0.60
2023-10-21T09:17:41.666Z,0.90
2023-10-21T09:20:10.384Z,0.70
2023-10-21T09:22:37.941Z,0.82
2023-10-21T09:25:21.272Z,0.80
2023-10-21T09:27:52.670Z,0.90
2023-10-21T09:30:20.423Z,0.88
2023-10-21T09:32:47.342Z,0.75
2023-10-21T09:35:14.662Z,0.70
2023-10-21T09:40:08.417Z,0.50
2023-10-21T09:42:38.683Z,0.60
2023-10-21T09:45:06.737Z,0.30
2023-10-21T09:47:38.294Z,0.50
2023-10-21T09:50:09.276Z,0.40
2023-10-21T09:52:53.013Z,0.40
2023-10-21T09:55:22.588Z,0.30
2023-10-21T09:57:49.096Z,0.52
2023-10-21T10:00:16.270Z,0.20
2023-10-21T10:02:44.688Z,0.30
2023-10-21T10:05:11.227Z,0.32
2023-10-21T10:07:41.674Z,0.63
2023-10-21T10:10:10.423Z,0.38
2023-10-21T10:12:44.773Z,0.30
2023-10-21T10:15:32.438Z,0.50
2023-10-21T10:18:00.632Z,0.40
2023-10-21T10:20:27.884Z,0.50
2023-10-21T10:25:48.288Z,0.40
2023-10-21T10:28:20.221Z,0.40
2023-10-21T10:30:49.810Z,0.40
2023-10-21T10:33:18.211Z,0.32
2023-10-21T10:35:48.969Z,0.50
2023-10-21T10:38:29.485Z,0.30
2023-10-21T10:41:04.060Z,0.50
2023-10-21T10:43:30.480Z,0.52
2023-10-21T10:45:56.847Z,0.50
2023-10-21T10:48:23.301Z,0.52
2023-10-21T10:50:49.956Z,0.80
2023-10-21T10:53:18.443Z,1.02
2023-10-21T10:55:48.665Z,0.40
2023-10-21T10:58:15.780Z,0.40
2023-10-21T11:00:42.955Z,0.40
2023-10-21T11:03:09.641Z,0.40
2023-10-21T11:05:36.336Z,0.45
2023-10-21T11:08:02.862Z,0.77
2023-10-21T11:10:29.423Z,0.70
2023-10-21T11:12:55.792Z,0.68
2023-10-21T11:15:22.468Z,0.50
2023-10-21T11:17:48.964Z,0.57
2023-10-21T11:20:16.073Z,0.70
2023-10-21T11:22:42.801Z,0.60
2023-10-21T11:25:09.563Z,0.50
2023-10-21T11:27:38.437Z,0.50
2023-10-21T11:30:08.186Z,0.63
2023-10-21T11:32:36.508Z,0.52
2023-10-21T11:35:07.660Z,0.50
2023-10-21T11:37:34.158Z,0.80
2023-10-21T11:40:01.986Z,0.88
2023-10-21T11:42:28.477Z,0.82
2023-10-21T11:44:59.377Z,0.80
2023-10-21T11:47:30.506Z,0.63
2023-10-21T11:49:58.224Z,0.70
2023-10-21T11:52:28.273Z,0.60
2023-10-21T11:54:56.588Z,0.70
2023-10-21T11:57:23.986Z,1.05
2023-10-21T11:59:52.059Z,0.70
2023-10-21T12:02:19.199Z,0.70
2023-10-21T12:04:45.620Z,0.70
2023-10-21T12:07:12.198Z,0.70
2023-10-21T12:09:38.590Z,0.82
2023-10-21T12:12:05.221Z,0.57
2023-10-21T12:14:31.678Z,0.70
2023-10-21T12:17:04.347Z,0.60
2023-10-21T12:19:38.311Z,0.55
2023-10-21T12:22:05.019Z,1.00
2023-10-21T12:24:31.411Z,1.30
2023-10-21T12:26:57.860Z,0.68
2023-10-21T12:29:24.529Z,1.30
2023-10-21T12:31:51.060Z,1.10
2023-10-21T12:34:17.474Z,0.70
2023-10-21T12:36:43.900Z,0.63
2023-10-21T12:39:10.415Z,0.70
2023-10-21T12:41:36.739Z,0.70
2023-10-21T12:44:03.151Z,0.90
2023-10-21T12:46:29.528Z,0.60
2023-10-21T12:48:57.649Z,1.25
2023-10-21T12:51:27.845Z,0.70
2023-10-21T12:54:04.207Z,0.68
2023-10-21T12:56:40.163Z,0.70
2023-10-21T12:59:06.620Z,1.02
2023-10-21T13:01:36.383Z,0.80
2023-10-21T13:04:03.064Z,0.77
2023-10-21T13:06:29.713Z,0.80
2023-10-21T13:08:56.176Z,0.98
2023-10-21T13:11:23.948Z,0.75
2023-10-21T13:13:51.432Z,1.00
2023-10-21T13:16:18.552Z,0.90
2023-10-21T13:21:11.504Z,0.90
2023-10-21T13:23:37.976Z,1.13
2023-10-21T13:26:04.704Z,0.93
2023-10-21T13:28:31.127Z,1.20
2023-10-21T13:30:57.508Z,0.90
2023-10-21T13:33:23.994Z,0.90
2023-10-21T13:35:50.360Z,1.00
2023-10-21T13:38:16.761Z,1.25
2023-10-21T13:40:43.549Z,0.85
2023-10-21T13:43:10.005Z,1.00
2023-10-21T13:45:36.697Z,1.40
2023-10-21T13:48:05.104Z,1.10
2023-10-21T13:50:31.616Z,1.00
2023-10-21T13:52:59.167Z,0.93
2023-10-21T13:55:25.665Z,1.17
2023-10-21T13:57:52.152Z,3.95
2023-10-21T14:00:23.592Z,4.82
2023-10-21T14:02:50.118Z,6.53
2023-10-21T14:05:16.657Z,5.55
2023-10-21T14:07:43.189Z,2.67
2023-10-21T14:10:09.795Z,1.98
2023-10-21T14:12:36.214Z,4.90
2023-10-21T14:15:02.969Z,5.43
2023-10-21T14:17:29.404Z,2.50
2023-10-21T14:19:55.835Z,2.35
2023-10-21T14:22:22.308Z,2.25
2023-10-21T14:24:48.823Z,1.52
2023-10-21T14:27:15.225Z,1.52
2023-10-21T14:29:41.643Z,1.95
2023-10-21T14:32:08.079Z,2.53
2023-10-21T14:34:34.563Z,2.83
2023-10-21T14:37:01.089Z,2.40
2023-10-21T14:39:27.851Z,2.58
2023-10-21T14:41:54.286Z,1.88
2023-10-21T14:44:20.670Z,1.63
2023-10-21T14:46:48.403Z,1.33
2023-10-21T14:49:14.822Z,1.50
2023-10-21T14:51:41.771Z,1.02
2023-10-21T14:54:08.314Z,0.60
2023-10-21T14:56:34.718Z,0.80
2023-10-21T14:59:01.068Z,0.68
2023-10-21T15:01:27.635Z,1.10
2023-10-21T15:03:54.235Z,1.20
2023-10-21T15:06:20.748Z,0.80
2023-10-21T15:08:47.105Z,0.90
2023-10-21T15:11:15.009Z,0.80
2023-10-21T15:13:41.712Z,1.10
2023-10-21T15:16:08.105Z,1.20
2023-10-21T15:18:34.499Z,1.35
2023-10-21T15:21:08.467Z,1.40
2023-10-21T15:23:36.402Z,1.60
2023-10-21T15:26:16.744Z,1.88
2023-10-21T15:28:43.680Z,2.58
2023-10-21T15:31:10.148Z,3.10
2023-10-21T15:33:36.536Z,3.00
2023-10-21T15:36:03.041Z,2.50
2023-10-21T15:38:29.593Z,2.60
2023-10-21T15:40:55.918Z,2.13
2023-10-21T15:43:22.241Z,2.28
2023-10-21T15:45:48.693Z,3.08
2023-10-21T15:48:15.235Z,3.75
2023-10-21T15:50:41.627Z,3.80
2023-10-21T15:53:07.970Z,2.90
2023-10-21T15:55:36.060Z,2.20
2023-10-21T15:58:04.702Z,2.40
2023-10-21T16:00:31.054Z,2.20
2023-10-21T16:02:57.610Z,2.50
2023-10-21T16:05:24.017Z,2.00
2023-10-21T16:10:19.844Z,2.00
2023-10-21T16:12:46.251Z,1.70
2023-10-21T16:15:12.824Z,1.30
2023-10-21T16:17:39.337Z,1.25
2023-10-21T16:20:06.591Z,1.30
2023-10-21T16:22:33.028Z,1.40
2023-10-21T16:24:59.393Z,1.40
2023-10-21T16:27:25.846Z,1.88
2023-10-21T16:29:52.233Z,1.58
2023-10-21T16:32:18.612Z,1.67
2023-10-21T16:34:45.027Z,1.40
2023-10-21T16:37:11.542Z,1.70
2023-10-21T16:39:38.083Z,1.83
2023-10-21T16:42:04.755Z,1.95
2023-10-21T16:44:32.436Z,1.90
2023-10-21T16:46:58.804Z,1.67
2023-10-21T16:49:25.183Z,1.50
2023-10-21T16:51:51.629Z,1.55
2023-10-21T16:54:18.096Z,1.40
2023-10-21T16:56:44.569Z,1.85
2023-10-21T16:59:10.928Z,1.60
2023-10-21T17:01:37.383Z,1.58
2023-10-21T17:04:04.061Z,1.45
2023-10-21T17:06:30.549Z,1.40
2023-10-21T17:08:56.979Z,1.30
2023-10-21T17:11:23.418Z,1.38
2023-10-21T17:13:49.881Z,1.35
2023-10-21T17:16:16.376Z,1.20
2023-10-21T17:18:42.902Z,1.67
2023-10-21T17:21:09.385Z,1.67
2023-10-21T17:23:35.820Z,1.70
2023-10-21T17:26:02.214Z,1.27
2023-10-21T17:28:28.562Z,1.20
2023-10-21T17:30:55.004Z,1.30
2023-10-21T17:33:21.340Z,1.38
2023-10-21T17:35:47.739Z,1.45
2023-10-21T17:38:14.135Z,1.35
2023-10-21T17:40:40.509Z,1.40
2023-10-21T17:43:07.020Z,1.08
2023-10-21T17:45:33.659Z,1.40
2023-10-21T17:48:00.138Z,1.38
2023-10-21T17:50:26.609Z,1.30
2023-10-21T17:52:53.097Z,1.30
2023-10-21T17:55:19.449Z,1.45
2023-10-21T17:57:46.058Z,2.10
2023-10-21T18:00:13.351Z,2.63
2023-10-21T18:02:39.754Z,4.20
2023-10-21T18:05:06.455Z,2.30
2023-10-21T18:07:32.876Z,2.60
2023-10-21T18:09:59.338Z,2.65
2023-10-21T18:12:26.101Z,4.70
2023-10-21T18:14:52.960Z,3.13
2023-10-21T18:17:19.579Z,4.47
2023-10-21T18:19:45.936Z,4.32
2023-10-21T18:22:12.764Z,3.10
2023-10-21T18:24:39.563Z,2.58
2023-10-21T18:27:07.744Z,3.55
2023-10-21T18:29:35.023Z,2.50
2023-10-21T18:32:01.864Z,2.30
2023-10-21T18:34:28.404Z,2.70
2023-10-21T18:36:54.912Z,2.72
2023-10-21T18:39:21.385Z,2.33
2023-10-21T18:41:49.262Z,1.70
2023-10-21T18:44:15.710Z,1.60
2023-10-21T18:46:42.163Z,2.10
2023-10-21T18:49:09.523Z,1.77
2023-10-21T18:54:06.140Z,1.80
2023-10-21T18:56:32.628Z,1.85
2023-10-21T18:58:59.171Z,2.42
2023-10-21T19:01:25.737Z,2.55
2023-10-21T19:03:52.312Z,2.08
2023-10-21T19:06:18.760Z,1.83
2023-10-21T19:08:45.220Z,1.88
2023-10-21T19:11:12.448Z,2.05
2023-10-21T19:13:39.020Z,2.22
2023-10-21T19:16:05.661Z,2.00
2023-10-21T19:18:32.100Z,1.80
2023-10-21T19:21:08.982Z,1.80
2023-10-21T19:23:35.818Z,1.98
2023-10-21T19:26:02.135Z,2.53
2023-10-21T19:28:28.499Z,2.10
2023-10-21T19:31:02.017Z,2.58
2023-10-21T19:35:55.752Z,2.42
2023-10-21T19:38:22.783Z,2.92
2023-10-21T19:40:49.798Z,3.03
2023-10-21T19:43:16.309Z,3.13
2023-10-21T19:45:45.866Z,2.92
2023-10-21T19:48:12.732Z,2.80
2023-10-21T19:50:43.264Z,3.10
2023-10-21T19:53:10.048Z,3.85
2023-10-21T19:55:37.172Z,3.85
2023-10-21T19:58:04.667Z,3.30
2023-10-21T20:00:35.438Z,3.08
2023-10-21T20:03:03.594Z,2.30
2023-10-21T20:05:31.638Z,2.83
2023-10-21T20:07:58.051Z,2.55
2023-10-21T20:10:24.439Z,2.40
2023-10-21T20:12:50.956Z,2.30
2023-10-21T20:15:17.476Z,2.38
2023-10-21T20:17:43.909Z,3.70
2023-10-21T20:20:10.564Z,3.33
2023-10-21T20:22:37.015Z,2.40
2023-10-21T20:25:04.137Z,1.85
2023-10-21T20:27:30.631Z,1.80
2023-10-21T20:29:57.091Z,2.20
2023-10-21T20:32:23.459Z,2.10
2023-10-21T20:34:50.043Z,1.77
2023-10-21T20:37:16.674Z,2.10
2023-10-21T20:39:43.094Z,3.60
2023-10-21T20:42:11.241Z,2.55
2023-10-21T20:44:37.645Z,2.50
2023-10-21T20:47:04.557Z,2.47
2023-10-21T20:49:33.104Z,2.08
2023-10-21T20:51:59.470Z,2.90
2023-10-21T20:54:25.986Z,3.53
2023-10-21T20:56:52.514Z,3.30
2023-10-21T20:59:18.884Z,2.72
2023-10-21T21:01:45.412Z,3.95
2023-10-21T21:04:11.860Z,4.40
2023-10-21T21:06:38.417Z,4.88
2023-10-21T21:09:04.907Z,4.25
2023-10-21T21:11:31.311Z,5.25
2023-10-21T21:13:58.023Z,3.80
2023-10-21T21:16:24.589Z,4.20
2023-10-21T21:18:51.245Z,3.97
2023-10-21T21:21:17.739Z,4.47
2023-10-21T21:23:44.128Z,2.67
2023-10-21T21:26:10.575Z,3.20
2023-10-21T21:28:36.920Z,3.60
2023-10-21T21:31:03.363Z,3.72
2023-10-21T21:33:29.731Z,3.72
2023-10-21T21:36:00.240Z,4.78
2023-10-21T21:38:28.119Z,4.90
2023-10-21T21:40:54.483Z,4.82
2023-10-21T21:43:20.963Z,4.45
2023-10-21T21:45:47.587Z,5.35
2023-10-21T21:48:14.068Z,3.60
2023-10-21T21:50:40.677Z,2.42
2023-10-21T21:53:08.195Z,3.50
2023-10-21T21:55:36.532Z,5.50
2023-10-21T21:58:02.942Z,4.13
2023-10-21T22:00:29.480Z,3.20
2023-10-21T22:02:55.873Z,2.30
2023-10-21T22:05:22.256Z,3.45
2023-10-21T22:07:48.738Z,4.00
2023-10-21T22:10:15.219Z,2.45
2023-10-21T22:12:41.552Z,3.00
2023-10-21T22:15:08.239Z,7.22
2023-10-21T22:17:34.908Z,9.40
2023-10-21T22:20:01.340Z,6.93
2023-10-21T22:22:27.849Z,3.67
2023-10-21T22:24:54.243Z,2.90
2023-10-21T22:27:20.635Z,1.77
2023-10-21T22:29:47.171Z,1.70
2023-10-21T22:32:13.629Z,2.53
2023-10-21T22:34:39.988Z,1.50
2023-10-21T22:37:06.359Z,3.03
2023-10-21T22:39:32.705Z,3.85
2023-10-21T22:41:59.321Z,4.80
2023-10-21T22:44:25.685Z,7.30
2023-10-21T22:46:52.095Z,7.28
2023-10-21T22:49:18.511Z,5.45
2023-10-21T22:51:44.850Z,3.65
2023-10-21T22:54:11.394Z,3.67
2023-10-21T22:56:37.852Z,4.20
2023-10-21T22:59:04.243Z,2.90
2023-10-21T23:01:30.656Z,2.83
2023-10-21T23:03:57.009Z,2.35
2023-10-21T23:06:23.388Z,2.08
2023-10-21T23:08:49.880Z,2.30
2023-10-21T23:11:16.411Z,2.15
2023-10-21T23:13:42.907Z,2.65
2023-10-21T23:16:09.320Z,2.50
2023-10-21T23:18:35.904Z,2.35
2023-10-21T23:21:02.410Z,2.30
2023-10-21T23:23:28.841Z,2.13
2023-10-21T23:25:55.199Z,1.83
2023-10-21T23:28:21.592Z,1.77
2023-10-21T23:30:47.923Z,1.65
2023-10-21T23:33:16.186Z,1.77
2023-10-21T23:35:44.015Z,1.42
2023-10-21T23:38:10.475Z,1.60
2023-10-21T23:40:36.879Z,1.52
2023-10-21T23:43:03.324Z,1.52
2023-10-21T23:45:29.834Z,1.30
2023-10-21T23:47:56.432Z,1.40
2023-10-21T23:50:23.046Z,1.15
2023-10-21T23:52:49.386Z,1.60
2023-10-21T23:55:15.769Z,1.55
2023-10-21T23:57:42.450Z,1.50
